Terminal Aerodrome Forecast
Issued by NWS

Current Version | Previous Version | Graphics & Text | Print | Product List | Glossary Off
Versions: 1 2 3 4 5 6 7 8 9 10 11 12 13 14 15 16 17 18 19 20 21 22 23 24 25 26 27 28 29 30 31 32 33

000
FTUS41 KRNK 130520
TAFLWB
TAF
KLWB 130520Z 1306/1406 29012G20KT 4SM -SHSN SCT009 OVC035
      TEMPO 1306/1308 3/4SM -SHSN OVC008
     FM130900 30011G22KT 6SM -SHSN OVC025
     FM131600 30010G17KT P6SM BKN035
     FM140000 30008KT P6SM SCT035=

USA.gov is the U.S. government's official web portal to all federal, state and local government web resources and services.